createdAt,value
2023-03-01T11:17:18.202Z,19.15
2023-03-01T11:28:46.742Z,19.74
2023-03-01T11:34:00.026Z,20.44
2023-03-01T11:39:16.146Z,20.23
2023-03-01T11:44:24.361Z,20.13
2023-03-01T11:49:47.146Z,19.99
2023-03-01T11:55:05.838Z,20.49
2023-03-01T12:00:25.172Z,20.78
2023-03-01T12:06:15.237Z,21.38
2023-03-01T12:11:30.750Z,20.53
2023-03-01T12:16:51.988Z,20.36
2023-03-01T12:22:19.282Z,20.63
2023-03-01T12:27:39.472Z,20.08
2023-03-01T12:32:58.755Z,21.54
2023-03-01T12:38:17.065Z,21.84
2023-03-01T12:43:33.256Z,22.00
2023-03-01T12:48:52.702Z,22.83
2023-03-01T12:54:00.762Z,23.15
2023-03-01T12:59:15.928Z,23.52
2023-03-01T13:04:44.181Z,23.73
2023-03-01T13:09:56.638Z,24.45
2023-03-01T13:14:59.777Z,22.91
2023-03-01T13:20:05.185Z,22.18
2023-03-01T13:25:20.805Z,22.37
2023-03-01T13:30:44.219Z,21.63
2023-03-01T13:35:47.505Z,21.65
2023-03-01T13:41:02.299Z,21.26
2023-03-01T13:46:13.006Z,21.23
2023-03-01T13:51:16.686Z,21.65
2023-03-01T13:56:27.442Z,21.94
2023-03-01T14:01:32.782Z,22.79
2023-03-01T14:06:38.477Z,23.59
2023-03-01T14:11:58.131Z,23.66
2023-03-01T14:17:16.326Z,24.11
2023-03-01T14:22:24.111Z,24.98
2023-03-01T14:27:33.668Z,24.83
2023-03-01T14:32:38.891Z,23.82
2023-03-01T14:37:44.042Z,23.92
2023-03-01T14:42:50.241Z,23.45
2023-03-01T14:47:56.469Z,23.74
2023-03-01T14:53:04.664Z,23.57
2023-03-01T14:58:15.998Z,23.96
2023-03-01T15:03:29.136Z,24.20
2023-03-01T15:08:37.837Z,23.40
2023-03-01T15:13:49.634Z,23.44
2023-03-01T15:18:59.768Z,23.13
2023-03-01T15:24:36.103Z,23.53
2023-03-01T15:29:43.317Z,22.96
2023-03-01T15:34:53.501Z,22.05
2023-03-01T15:39:59.694Z,20.96
2023-03-01T15:45:16.954Z,21.81
2023-03-01T15:50:25.179Z,21.02
2023-03-01T15:55:31.348Z,19.58
2023-03-01T16:00:44.052Z,20.16
2023-03-01T16:05:53.785Z,19.86
2023-03-01T16:10:57.978Z,19.80
2023-03-01T16:16:06.241Z,19.50
2023-03-01T16:21:13.438Z,19.29
2023-03-01T16:26:16.696Z,18.90
2023-03-01T16:31:22.398Z,18.82
2023-03-01T16:36:29.270Z,18.37
2023-03-01T16:41:33.016Z,17.93
2023-03-01T16:46:37.851Z,17.26
2023-03-01T16:51:41.009Z,16.65
2023-03-01T16:56:44.298Z,16.22
2023-03-01T17:01:48.919Z,16.01
2023-03-01T17:06:52.372Z,15.26
2023-03-01T17:11:56.023Z,14.86
2023-03-01T17:17:00.568Z,14.46
2023-03-01T17:22:04.043Z,14.38
2023-03-01T17:27:07.884Z,13.95
2023-03-01T17:32:12.687Z,13.79
2023-03-01T17:37:16.062Z,13.67
2023-03-01T17:42:19.322Z,13.26
2023-03-01T17:47:23.926Z,13.12
2023-03-01T17:52:27.267Z,12.93
2023-03-01T17:57:30.522Z,12.74
2023-03-01T18:02:35.245Z,12.38
2023-03-01T18:07:39.086Z,12.55
2023-03-01T18:12:42.328Z,12.53
2023-03-01T18:17:47.790Z,12.38
2023-03-01T18:22:53.006Z,12.31
2023-03-01T18:27:56.191Z,12.22
2023-03-01T18:33:02.336Z,12.17
2023-03-01T18:38:06.109Z,12.03
2023-03-01T18:43:11.328Z,12.02
2023-03-01T18:48:16.031Z,11.66
2023-03-01T18:53:20.415Z,11.71
2023-03-01T18:58:26.233Z,11.92
2023-03-01T19:10:00.548Z,11.34
2023-03-01T19:15:16.747Z,11.47
2023-03-01T19:21:03.351Z,11.38
2023-03-01T19:26:11.113Z,11.56
2023-03-01T19:31:17.349Z,11.44
2023-03-01T19:36:33.967Z,11.45
2023-03-01T19:41:37.402Z,11.16
2023-03-01T19:46:41.069Z,10.88
2023-03-01T19:51:45.776Z,10.96
2023-03-01T19:56:49.711Z,10.84
2023-03-01T20:01:53.124Z,10.73
2023-03-01T20:06:57.826Z,10.75
2023-03-01T20:12:01.079Z,10.53
2023-03-01T20:17:04.440Z,10.73
2023-03-01T20:22:17.729Z,10.83
2023-03-01T20:27:23.666Z,10.34
2023-03-01T20:32:31.082Z,10.23
2023-03-01T20:37:52.112Z,10.21
2023-03-01T20:42:59.612Z,9.89
2023-03-01T20:48:03.772Z,9.80
2023-03-01T20:53:20.092Z,9.67
2023-03-01T20:58:26.469Z,9.26
2023-03-01T21:03:32.678Z,9.48
2023-03-01T21:08:38.784Z,9.59
2023-03-01T21:13:42.054Z,9.56
2023-03-01T21:18:45.163Z,9.64
2023-03-01T21:23:50.142Z,9.55
2023-03-01T21:28:57.828Z,9.60
2023-03-01T21:34:04.241Z,9.44
2023-03-01T21:39:09.027Z,9.34
2023-03-01T21:44:12.186Z,9.09
2023-03-01T21:49:15.380Z,8.95
2023-03-01T21:54:21.343Z,9.15
2023-03-01T21:59:25.457Z,9.09
2023-03-01T22:04:28.800Z,9.24
2023-03-01T22:09:35.125Z,9.01
2023-03-01T22:14:38.403Z,8.97
2023-03-01T22:19:41.770Z,9.03
2023-03-01T22:24:46.529Z,8.95
2023-03-01T22:29:49.832Z,8.90
2023-03-01T22:34:53.133Z,8.88
2023-03-01T22:39:58.541Z,8.82
2023-03-01T22:45:01.570Z,8.64
2023-03-01T22:50:05.415Z,8.53
2023-03-01T22:55:11.317Z,8.38
2023-03-01T23:00:15.603Z,8.42
2023-03-01T23:05:19.237Z,8.29
2023-03-01T23:10:23.931Z,8.36
2023-03-01T23:15:27.300Z,8.35
2023-03-01T23:20:30.741Z,8.23
2023-03-01T23:25:35.523Z,8.20
2023-03-01T23:30:38.866Z,8.05
2023-03-01T23:35:42.159Z,8.28
2023-03-01T23:40:47.117Z,8.00
2023-03-01T23:45:54.896Z,7.93
2023-03-01T23:50:58.208Z,7.66
2023-03-01T23:56:03.885Z,7.65
